sensor_id;sensor_type;location;lat;lon;timestamp;P1;durP1;ratioP1;P2;durP2;ratioP2
58083;SDS011;43882;51.550;11.858;2024-01-06T00:02:21;22.13;;;7.90;;
58083;SDS011;43882;51.550;11.858;2024-01-06T00:04:47;21.33;;;6.03;;
58083;SDS011;43882;51.550;11.858;2024-01-06T00:07:13;17.63;;;5.47;;
58083;SDS011;43882;51.550;11.858;2024-01-06T00:09:39;15.98;;;4.80;;
58083;SDS011;43882;51.550;11.858;2024-01-06T00:12:05;16.65;;;4.90;;
58083;SDS011;43882;51.550;11.858;2024-01-06T00:14:32;16.33;;;5.38;;
58083;SDS011;43882;51.550;11.858;2024-01-06T00:16:58;17.05;;;5.07;;
58083;SDS011;43882;51.550;11.858;2024-01-06T00:19:24;14.50;;;4.18;;
58083;SDS011;43882;51.550;11.858;2024-01-06T00:21:50;14.85;;;4.68;;
58083;SDS011;43882;51.550;11.858;2024-01-06T00:24:16;16.40;;;4.45;;
58083;SDS011;43882;51.550;11.858;2024-01-06T00:26:42;15.38;;;4.43;;
58083;SDS011;43882;51.550;11.858;2024-01-06T00:29:08;15.38;;;4.32;;
58083;SDS011;43882;51.550;11.858;2024-01-06T00:31:34;14.32;;;4.25;;
58083;SDS011;43882;51.550;11.858;2024-01-06T00:34:00;16.17;;;4.43;;
58083;SDS011;43882;51.550;11.858;2024-01-06T00:36:27;13.65;;;3.75;;
58083;SDS011;43882;51.550;11.858;2024-01-06T00:38:53;14.07;;;3.67;;
58083;SDS011;43882;51.550;11.858;2024-01-06T00:41:19;13.65;;;4.20;;
58083;SDS011;43882;51.550;11.858;2024-01-06T00:43:45;15.20;;;3.83;;
58083;SDS011;43882;51.550;11.858;2024-01-06T00:46:11;14.40;;;4.07;;
58083;SDS011;43882;51.550;11.858;2024-01-06T00:48:37;14.88;;;4.30;;
58083;SDS011;43882;51.550;11.858;2024-01-06T00:51:04;13.57;;;4.05;;
58083;SDS011;43882;51.550;11.858;2024-01-06T00:53:30;14.48;;;3.88;;
58083;SDS011;43882;51.550;11.858;2024-01-06T00:55:56;15.35;;;4.18;;
58083;SDS011;43882;51.550;11.858;2024-01-06T00:58:22;17.42;;;4.18;;
58083;SDS011;43882;51.550;11.858;2024-01-06T01:00:48;14.05;;;3.90;;
58083;SDS011;43882;51.550;11.858;2024-01-06T01:03:14;14.52;;;3.97;;
58083;SDS011;43882;51.550;11.858;2024-01-06T01:05:40;12.45;;;3.60;;
58083;SDS011;43882;51.550;11.858;2024-01-06T01:08:07;13.90;;;3.90;;
58083;SDS011;43882;51.550;11.858;2024-01-06T01:10:33;15.32;;;3.63;;
58083;SDS011;43882;51.550;11.858;2024-01-06T01:12:59;16.05;;;3.80;;
58083;SDS011;43882;51.550;11.858;2024-01-06T01:15:25;13.48;;;3.63;;
58083;SDS011;43882;51.550;11.858;2024-01-06T01:17:51;13.63;;;3.65;;
58083;SDS011;43882;51.550;11.858;2024-01-06T01:20:17;15.48;;;3.90;;
58083;SDS011;43882;51.550;11.858;2024-01-06T01:22:43;13.80;;;3.88;;
58083;SDS011;43882;51.550;11.858;2024-01-06T01:25:09;12.35;;;3.40;;
58083;SDS011;43882;51.550;11.858;2024-01-06T01:27:37;12.48;;;4.00;;
58083;SDS011;43882;51.550;11.858;2024-01-06T01:30:03;14.27;;;3.70;;
58083;SDS011;43882;51.550;11.858;2024-01-06T01:32:30;14.65;;;3.50;;
58083;SDS011;43882;51.550;11.858;2024-01-06T01:34:56;13.30;;;3.70;;
58083;SDS011;43882;51.550;11.858;2024-01-06T01:37:22;13.77;;;3.90;;
58083;SDS011;43882;51.550;11.858;2024-01-06T01:39:48;13.80;;;3.80;;
58083;SDS011;43882;51.550;11.858;2024-01-06T01:42:14;12.95;;;3.50;;
58083;SDS011;43882;51.550;11.858;2024-01-06T01:44:40;14.75;;;4.30;;
58083;SDS011;43882;51.550;11.858;2024-01-06T01:47:07;14.85;;;4.00;;
58083;SDS011;43882;51.550;11.858;2024-01-06T01:49:33;14.93;;;3.63;;
58083;SDS011;43882;51.550;11.858;2024-01-06T01:51:59;12.27;;;3.38;;
58083;SDS011;43882;51.550;11.858;2024-01-06T01:54:25;12.85;;;3.92;;
58083;SDS011;43882;51.550;11.858;2024-01-06T01:56:52;14.45;;;4.10;;
58083;SDS011;43882;51.550;11.858;2024-01-06T01:59:19;13.45;;;3.67;;
58083;SDS011;43882;51.550;11.858;2024-01-06T02:01:45;14.73;;;3.83;;
58083;SDS011;43882;51.550;11.858;2024-01-06T02:04:12;13.73;;;3.80;;
58083;SDS011;43882;51.550;11.858;2024-01-06T02:06:38;13.68;;;3.80;;
58083;SDS011;43882;51.550;11.858;2024-01-06T02:09:04;13.55;;;3.53;;
58083;SDS011;43882;51.550;11.858;2024-01-06T02:11:30;13.52;;;3.65;;
58083;SDS011;43882;51.550;11.858;2024-01-06T02:13:56;14.82;;;4.05;;
58083;SDS011;43882;51.550;11.858;2024-01-06T02:16:22;16.13;;;3.85;;
58083;SDS011;43882;51.550;11.858;2024-01-06T02:18:49;14.50;;;3.97;;
58083;SDS011;43882;51.550;11.858;2024-01-06T02:21:15;15.10;;;3.95;;
58083;SDS011;43882;51.550;11.858;2024-01-06T02:23:41;13.70;;;3.80;;
58083;SDS011;43882;51.550;11.858;2024-01-06T02:26:07;13.93;;;4.20;;
58083;SDS011;43882;51.550;11.858;2024-01-06T02:28:34;13.68;;;3.85;;
58083;SDS011;43882;51.550;11.858;2024-01-06T02:31:00;13.65;;;3.83;;
58083;SDS011;43882;51.550;11.858;2024-01-06T02:33:26;14.23;;;3.75;;
58083;SDS011;43882;51.550;11.858;2024-01-06T02:35:52;14.40;;;3.70;;
58083;SDS011;43882;51.550;11.858;2024-01-06T02:38:18;13.38;;;3.78;;
58083;SDS011;43882;51.550;11.858;2024-01-06T02:40:44;15.55;;;3.63;;
58083;SDS011;43882;51.550;11.858;2024-01-06T02:43:10;13.77;;;4.05;;
58083;SDS011;43882;51.550;11.858;2024-01-06T02:45:36;15.00;;;3.70;;
58083;SDS011;43882;51.550;11.858;2024-01-06T02:48:03;16.55;;;3.85;;
58083;SDS011;43882;51.550;11.858;2024-01-06T02:50:29;14.80;;;4.20;;
58083;SDS011;43882;51.550;11.858;2024-01-06T02:52:55;13.57;;;3.85;;
58083;SDS011;43882;51.550;11.858;2024-01-06T02:55:21;13.35;;;3.70;;
58083;SDS011;43882;51.550;11.858;2024-01-06T02:57:47;14.32;;;3.70;;
58083;SDS011;43882;51.550;11.858;2024-01-06T03:00:13;13.40;;;3.67;;
58083;SDS011;43882;51.550;11.858;2024-01-06T03:02:40;14.45;;;3.53;;
58083;SDS011;43882;51.550;11.858;2024-01-06T03:05:08;13.88;;;3.70;;
58083;SDS011;43882;51.550;11.858;2024-01-06T03:07:35;13.35;;;3.95;;
58083;SDS011;43882;51.550;11.858;2024-01-06T03:10:01;14.18;;;3.83;;
58083;SDS011;43882;51.550;11.858;2024-01-06T03:12:27;14.27;;;4.10;;
58083;SDS011;43882;51.550;11.858;2024-01-06T03:14:53;15.05;;;4.20;;
58083;SDS011;43882;51.550;11.858;2024-01-06T03:17:20;18.77;;;5.88;;
58083;SDS011;43882;51.550;11.858;2024-01-06T03:19:46;18.05;;;5.22;;
58083;SDS011;43882;51.550;11.858;2024-01-06T03:22:12;13.43;;;4.25;;
58083;SDS011;43882;51.550;11.858;2024-01-06T03:24:38;14.52;;;4.00;;
58083;SDS011;43882;51.550;11.858;2024-01-06T03:27:05;14.80;;;4.75;;
58083;SDS011;43882;51.550;11.858;2024-01-06T03:29:31;17.08;;;4.65;;
58083;SDS011;43882;51.550;11.858;2024-01-06T03:31:57;17.08;;;4.75;;
58083;SDS011;43882;51.550;11.858;2024-01-06T03:34:23;14.70;;;4.40;;
58083;SDS011;43882;51.550;11.858;2024-01-06T03:36:49;18.80;;;5.10;;
58083;SDS011;43882;51.550;11.858;2024-01-06T03:39:16;16.15;;;5.53;;
58083;SDS011;43882;51.550;11.858;2024-01-06T03:41:42;15.95;;;4.47;;
58083;SDS011;43882;51.550;11.858;2024-01-06T03:44:08;17.52;;;4.80;;
58083;SDS011;43882;51.550;11.858;2024-01-06T03:46:34;17.33;;;4.80;;
58083;SDS011;43882;51.550;11.858;2024-01-06T03:49:01;15.80;;;5.05;;
58083;SDS011;43882;51.550;11.858;2024-01-06T03:51:27;16.27;;;5.20;;
58083;SDS011;43882;51.550;11.858;2024-01-06T03:53:53;15.82;;;5.00;;
58083;SDS011;43882;51.550;11.858;2024-01-06T03:56:19;16.02;;;4.95;;
58083;SDS011;43882;51.550;11.858;2024-01-06T03:58:45;17.45;;;4.93;;
58083;SDS011;43882;51.550;11.858;2024-01-06T04:01:12;16.35;;;5.45;;
58083;SDS011;43882;51.550;11.858;2024-01-06T04:03:38;18.20;;;5.47;;
58083;SDS011;43882;51.550;11.858;2024-01-06T04:06:07;15.45;;;4.90;;
58083;SDS011;43882;51.550;11.858;2024-01-06T04:08:33;16.00;;;5.38;;
58083;SDS011;43882;51.550;11.858;2024-01-06T04:11:00;17.17;;;5.65;;
58083;SDS011;43882;51.550;11.858;2024-01-06T04:13:26;17.48;;;5.00;;
58083;SDS011;43882;51.550;11.858;2024-01-06T04:15:53;19.00;;;5.47;;
58083;SDS011;43882;51.550;11.858;2024-01-06T04:18:19;16.92;;;5.18;;
58083;SDS011;43882;51.550;11.858;2024-01-06T04:20:45;16.45;;;5.82;;
58083;SDS011;43882;51.550;11.858;2024-01-06T04:23:11;17.13;;;5.57;;
58083;SDS011;43882;51.550;11.858;2024-01-06T04:25:37;17.00;;;5.25;;
58083;SDS011;43882;51.550;11.858;2024-01-06T04:28:03;16.67;;;5.40;;
58083;SDS011;43882;51.550;11.858;2024-01-06T04:30:29;16.65;;;5.63;;
58083;SDS011;43882;51.550;11.858;2024-01-06T04:32:55;15.45;;;4.90;;
58083;SDS011;43882;51.550;11.858;2024-01-06T04:35:22;15.75;;;5.13;;
58083;SDS011;43882;51.550;11.858;2024-01-06T04:37:48;15.93;;;5.30;;
58083;SDS011;43882;51.550;11.858;2024-01-06T04:40:14;18.08;;;5.30;;
58083;SDS011;43882;51.550;11.858;2024-01-06T04:42:41;18.70;;;5.47;;
58083;SDS011;43882;51.550;11.858;2024-01-06T04:45:07;18.08;;;5.45;;
58083;SDS011;43882;51.550;11.858;2024-01-06T04:47:33;16.90;;;5.25;;
58083;SDS011;43882;51.550;11.858;2024-01-06T04:50:00;15.73;;;5.50;;
58083;SDS011;43882;51.550;11.858;2024-01-06T04:52:26;16.75;;;4.88;;
58083;SDS011;43882;51.550;11.858;2024-01-06T04:54:52;31.02;;;11.38;;
58083;SDS011;43882;51.550;11.858;2024-01-06T04:57:18;18.33;;;6.63;;
58083;SDS011;43882;51.550;11.858;2024-01-06T04:59:45;17.13;;;5.30;;
58083;SDS011;43882;51.550;11.858;2024-01-06T05:02:11;17.65;;;5.13;;
58083;SDS011;43882;51.550;11.858;2024-01-06T05:04:37;17.65;;;5.70;;
58083;SDS011;43882;51.550;11.858;2024-01-06T05:07:03;16.05;;;4.80;;
58083;SDS011;43882;51.550;11.858;2024-01-06T05:09:29;14.95;;;4.45;;
58083;SDS011;43882;51.550;11.858;2024-01-06T05:11:56;16.13;;;4.75;;
58083;SDS011;43882;51.550;11.858;2024-01-06T05:14:22;16.73;;;4.90;;
58083;SDS011;43882;51.550;11.858;2024-01-06T05:16:48;15.18;;;4.35;;
58083;SDS011;43882;51.550;11.858;2024-01-06T05:19:14;16.30;;;5.05;;
58083;SDS011;43882;51.550;11.858;2024-01-06T05:21:44;15.90;;;4.55;;
58083;SDS011;43882;51.550;11.858;2024-01-06T05:24:11;16.30;;;4.57;;
58083;SDS011;43882;51.550;11.858;2024-01-06T05:26:38;16.13;;;4.72;;
58083;SDS011;43882;51.550;11.858;2024-01-06T05:29:04;15.10;;;4.55;;
58083;SDS011;43882;51.550;11.858;2024-01-06T05:31:30;14.27;;;4.10;;
58083;SDS011;43882;51.550;11.858;2024-01-06T05:33:56;18.23;;;4.50;;
58083;SDS011;43882;51.550;11.858;2024-01-06T05:36:22;14.60;;;4.00;;
58083;SDS011;43882;51.550;11.858;2024-01-06T05:38:48;15.30;;;4.00;;
58083;SDS011;43882;51.550;11.858;2024-01-06T05:41:15;16.23;;;4.38;;
58083;SDS011;43882;51.550;11.858;2024-01-06T05:43:41;13.80;;;4.22;;
58083;SDS011;43882;51.550;11.858;2024-01-06T05:46:07;14.00;;;4.10;;
58083;SDS011;43882;51.550;11.858;2024-01-06T05:48:35;14.15;;;4.32;;
58083;SDS011;43882;51.550;11.858;2024-01-06T05:51:01;15.98;;;4.50;;
58083;SDS011;43882;51.550;11.858;2024-01-06T05:53:30;15.07;;;4.32;;
58083;SDS011;43882;51.550;11.858;2024-01-06T05:55:56;14.85;;;4.65;;
58083;SDS011;43882;51.550;11.858;2024-01-06T05:58:23;15.02;;;4.20;;
58083;SDS011;43882;51.550;11.858;2024-01-06T06:00:49;15.02;;;4.13;;
58083;SDS011;43882;51.550;11.858;2024-01-06T06:03:16;14.90;;;3.90;;
58083;SDS011;43882;51.550;11.858;2024-01-06T06:05:42;15.70;;;3.80;;
58083;SDS011;43882;51.550;11.858;2024-01-06T06:08:08;13.45;;;3.75;;
58083;SDS011;43882;51.550;11.858;2024-01-06T06:10:34;12.25;;;3.53;;
58083;SDS011;43882;51.550;11.858;2024-01-06T06:13:16;13.68;;;3.67;;
58083;SDS011;43882;51.550;11.858;2024-01-06T06:15:42;13.82;;;4.07;;
58083;SDS011;43882;51.550;11.858;2024-01-06T06:18:08;12.35;;;3.63;;
58083;SDS011;43882;51.550;11.858;2024-01-06T06:20:34;16.75;;;4.28;;
58083;SDS011;43882;51.550;11.858;2024-01-06T06:23:00;16.48;;;4.30;;
58083;SDS011;43882;51.550;11.858;2024-01-06T06:25:27;13.35;;;3.50;;
58083;SDS011;43882;51.550;11.858;2024-01-06T06:27:53;13.55;;;4.00;;
58083;SDS011;43882;51.550;11.858;2024-01-06T06:30:19;14.10;;;4.15;;
58083;SDS011;43882;51.550;11.858;2024-01-06T06:32:45;15.73;;;4.43;;
58083;SDS011;43882;51.550;11.858;2024-01-06T06:35:12;15.60;;;3.83;;
58083;SDS011;43882;51.550;11.858;2024-01-06T06:37:38;14.75;;;4.00;;
58083;SDS011;43882;51.550;11.858;2024-01-06T06:40:04;13.07;;;3.60;;
58083;SDS011;43882;51.550;11.858;2024-01-06T06:42:31;14.23;;;3.80;;
58083;SDS011;43882;51.550;11.858;2024-01-06T06:44:57;13.55;;;4.05;;
58083;SDS011;43882;51.550;11.858;2024-01-06T06:47:23;15.90;;;3.95;;
58083;SDS011;43882;51.550;11.858;2024-01-06T06:49:49;10.85;;;3.30;;
58083;SDS011;43882;51.550;11.858;2024-01-06T06:52:16;14.60;;;4.35;;
58083;SDS011;43882;51.550;11.858;2024-01-06T06:54:42;12.27;;;3.58;;
58083;SDS011;43882;51.550;11.858;2024-01-06T06:57:08;13.65;;;3.53;;
58083;SDS011;43882;51.550;11.858;2024-01-06T06:59:34;14.73;;;3.47;;
58083;SDS011;43882;51.550;11.858;2024-01-06T07:02:00;17.02;;;6.28;;
58083;SDS011;43882;51.550;11.858;2024-01-06T07:04:26;26.15;;;13.00;;
58083;SDS011;43882;51.550;11.858;2024-01-06T07:06:52;19.65;;;8.45;;
58083;SDS011;43882;51.550;11.858;2024-01-06T07:09:18;17.90;;;7.00;;
58083;SDS011;43882;51.550;11.858;2024-01-06T07:11:48;15.85;;;5.30;;
58083;SDS011;43882;51.550;11.858;2024-01-06T07:14:14;14.75;;;3.88;;
58083;SDS011;43882;51.550;11.858;2024-01-06T07:16:40;13.82;;;3.92;;
58083;SDS011;43882;51.550;11.858;2024-01-06T07:19:06;13.93;;;3.88;;
58083;SDS011;43882;51.550;11.858;2024-01-06T07:21:32;14.13;;;3.83;;
58083;SDS011;43882;51.550;11.858;2024-01-06T07:23:58;15.07;;;3.92;;
58083;SDS011;43882;51.550;11.858;2024-01-06T07:26:26;15.35;;;4.35;;
58083;SDS011;43882;51.550;11.858;2024-01-06T07:28:52;12.80;;;3.72;;
58083;SDS011;43882;51.550;11.858;2024-01-06T07:31:18;16.23;;;4.80;;
58083;SDS011;43882;51.550;11.858;2024-01-06T07:33:44;16.88;;;5.30;;
58083;SDS011;43882;51.550;11.858;2024-01-06T07:36:10;17.35;;;5.65;;
58083;SDS011;43882;51.550;11.858;2024-01-06T07:38:36;18.70;;;5.47;;
58083;SDS011;43882;51.550;11.858;2024-01-06T07:41:03;17.00;;;6.22;;
58083;SDS011;43882;51.550;11.858;2024-01-06T07:43:32;17.00;;;5.53;;
58083;SDS011;43882;51.550;11.858;2024-01-06T07:45:58;17.48;;;5.78;;
58083;SDS011;43882;51.550;11.858;2024-01-06T07:48:24;18.65;;;6.10;;
58083;SDS011;43882;51.550;11.858;2024-01-06T07:50:50;16.65;;;5.85;;
58083;SDS011;43882;51.550;11.858;2024-01-06T07:53:16;17.70;;;5.90;;
58083;SDS011;43882;51.550;11.858;2024-01-06T07:55:42;19.27;;;6.43;;
58083;SDS011;43882;51.550;11.858;2024-01-06T07:58:08;18.40;;;7.10;;
58083;SDS011;43882;51.550;11.858;2024-01-06T08:00:34;18.30;;;6.57;;
58083;SDS011;43882;51.550;11.858;2024-01-06T08:03:00;17.27;;;6.40;;
58083;SDS011;43882;51.550;11.858;2024-01-06T08:05:29;17.52;;;6.32;;
58083;SDS011;43882;51.550;11.858;2024-01-06T08:07:55;16.75;;;5.40;;
58083;SDS011;43882;51.550;11.858;2024-01-06T08:10:21;17.20;;;6.40;;
58083;SDS011;43882;51.550;11.858;2024-01-06T08:12:47;18.27;;;6.18;;
58083;SDS011;43882;51.550;11.858;2024-01-06T08:15:14;17.45;;;6.00;;
58083;SDS011;43882;51.550;11.858;2024-01-06T08:17:40;18.88;;;6.45;;
58083;SDS011;43882;51.550;11.858;2024-01-06T08:20:09;18.85;;;7.07;;
58083;SDS011;43882;51.550;11.858;2024-01-06T08:22:35;17.80;;;5.93;;
58083;SDS011;43882;51.550;11.858;2024-01-06T08:25:01;16.65;;;5.80;;
58083;SDS011;43882;51.550;11.858;2024-01-06T08:27:27;16.20;;;5.38;;
58083;SDS011;43882;51.550;11.858;2024-01-06T08:29:53;17.00;;;5.68;;
58083;SDS011;43882;51.550;11.858;2024-01-06T08:32:20;17.17;;;5.88;;
58083;SDS011;43882;51.550;11.858;2024-01-06T08:34:46;16.60;;;5.80;;
58083;SDS011;43882;51.550;11.858;2024-01-06T08:37:12;15.70;;;5.38;;
58083;SDS011;43882;51.550;11.858;2024-01-06T08:39:39;18.35;;;5.43;;
58083;SDS011;43882;51.550;11.858;2024-01-06T08:42:06;16.65;;;5.45;;
58083;SDS011;43882;51.550;11.858;2024-01-06T08:44:32;16.88;;;5.18;;
58083;SDS011;43882;51.550;11.858;2024-01-06T08:46:58;15.13;;;5.10;;
58083;SDS011;43882;51.550;11.858;2024-01-06T08:49:24;17.20;;;5.43;;
58083;SDS011;43882;51.550;11.858;2024-01-06T08:51:50;16.63;;;5.20;;
58083;SDS011;43882;51.550;11.858;2024-01-06T08:54:16;17.73;;;5.82;;
58083;SDS011;43882;51.550;11.858;2024-01-06T08:56:42;16.80;;;5.20;;
58083;SDS011;43882;51.550;11.858;2024-01-06T08:59:08;21.23;;;6.93;;
58083;SDS011;43882;51.550;11.858;2024-01-06T09:01:34;17.27;;;5.45;;
58083;SDS011;43882;51.550;11.858;2024-01-06T09:04:02;17.52;;;5.55;;
58083;SDS011;43882;51.550;11.858;2024-01-06T09:06:28;17.35;;;5.25;;
58083;SDS011;43882;51.550;11.858;2024-01-06T09:08:54;16.13;;;5.38;;
58083;SDS011;43882;51.550;11.858;2024-01-06T09:11:20;15.85;;;5.07;;
58083;SDS011;43882;51.550;11.858;2024-01-06T09:13:46;16.33;;;5.35;;
58083;SDS011;43882;51.550;11.858;2024-01-06T09:16:12;17.30;;;5.50;;
58083;SDS011;43882;51.550;11.858;2024-01-06T09:18:39;17.67;;;5.85;;
58083;SDS011;43882;51.550;11.858;2024-01-06T09:21:05;19.52;;;6.20;;
58083;SDS011;43882;51.550;11.858;2024-01-06T09:23:32;17.55;;;6.07;;
58083;SDS011;43882;51.550;11.858;2024-01-06T09:25:58;16.35;;;6.13;;
58083;SDS011;43882;51.550;11.858;2024-01-06T09:28:24;19.27;;;6.30;;
58083;SDS011;43882;51.550;11.858;2024-01-06T09:30:50;17.77;;;6.32;;
58083;SDS011;43882;51.550;11.858;2024-01-06T09:33:17;16.55;;;6.25;;
58083;SDS011;43882;51.550;11.858;2024-01-06T09:35:43;16.33;;;5.80;;
58083;SDS011;43882;51.550;11.858;2024-01-06T09:38:10;17.13;;;5.95;;
58083;SDS011;43882;51.550;11.858;2024-01-06T09:40:36;17.25;;;5.90;;
58083;SDS011;43882;51.550;11.858;2024-01-06T09:43:08;17.97;;;6.50;;
58083;SDS011;43882;51.550;11.858;2024-01-06T09:45:34;16.70;;;5.70;;
58083;SDS011;43882;51.550;11.858;2024-01-06T09:48:00;17.95;;;5.90;;
58083;SDS011;43882;51.550;11.858;2024-01-06T09:50:42;19.25;;;6.68;;
58083;SDS011;43882;51.550;11.858;2024-01-06T09:53:10;19.10;;;6.55;;
58083;SDS011;43882;51.550;11.858;2024-01-06T09:55:37;18.48;;;6.57;;
58083;SDS011;43882;51.550;11.858;2024-01-06T09:58:03;19.30;;;6.03;;
58083;SDS011;43882;51.550;11.858;2024-01-06T10:00:31;19.30;;;7.30;;
58083;SDS011;43882;51.550;11.858;2024-01-06T10:02:57;17.95;;;6.00;;
58083;SDS011;43882;51.550;11.858;2024-01-06T10:05:23;18.08;;;6.88;;
58083;SDS011;43882;51.550;11.858;2024-01-06T10:07:49;18.33;;;6.07;;
58083;SDS011;43882;51.550;11.858;2024-01-06T10:10:15;17.20;;;6.20;;
58083;SDS011;43882;51.550;11.858;2024-01-06T10:12:42;17.60;;;6.30;;
58083;SDS011;43882;51.550;11.858;2024-01-06T10:15:08;18.63;;;6.05;;
58083;SDS011;43882;51.550;11.858;2024-01-06T10:17:39;15.52;;;5.50;;
58083;SDS011;43882;51.550;11.858;2024-01-06T10:20:06;16.65;;;6.15;;
58083;SDS011;43882;51.550;11.858;2024-01-06T10:22:34;19.10;;;6.95;;
58083;SDS011;43882;51.550;11.858;2024-01-06T10:25:01;18.88;;;6.72;;
58083;SDS011;43882;51.550;11.858;2024-01-06T10:27:33;17.15;;;6.40;;
58083;SDS011;43882;51.550;11.858;2024-01-06T10:30:08;24.63;;;11.38;;
58083;SDS011;43882;51.550;11.858;2024-01-06T10:32:35;28.25;;;14.50;;
58083;SDS011;43882;51.550;11.858;2024-01-06T10:35:02;23.33;;;9.77;;
58083;SDS011;43882;51.550;11.858;2024-01-06T10:37:29;23.10;;;9.75;;
58083;SDS011;43882;51.550;11.858;2024-01-06T10:40:16;20.15;;;9.02;;
58083;SDS011;43882;51.550;11.858;2024-01-06T10:42:42;22.63;;;9.20;;
58083;SDS011;43882;51.550;11.858;2024-01-06T10:45:09;19.70;;;9.30;;
58083;SDS011;43882;51.550;11.858;2024-01-06T10:47:37;23.15;;;9.02;;
58083;SDS011;43882;51.550;11.858;2024-01-06T10:50:05;21.20;;;8.52;;
58083;SDS011;43882;51.550;11.858;2024-01-06T10:52:33;20.95;;;7.95;;
58083;SDS011;43882;51.550;11.858;2024-01-06T10:55:02;22.10;;;8.07;;
58083;SDS011;43882;51.550;11.858;2024-01-06T10:57:30;19.77;;;7.90;;
58083;SDS011;43882;51.550;11.858;2024-01-06T10:59:57;20.30;;;7.85;;
58083;SDS011;43882;51.550;11.858;2024-01-06T11:02:24;21.67;;;8.52;;
58083;SDS011;43882;51.550;11.858;2024-01-06T11:04:51;21.17;;;8.90;;
58083;SDS011;43882;51.550;11.858;2024-01-06T11:07:18;21.23;;;8.25;;
58083;SDS011;43882;51.550;11.858;2024-01-06T11:09:47;21.02;;;8.88;;
58083;SDS011;43882;51.550;11.858;2024-01-06T11:13:05;22.43;;;9.67;;
58083;SDS011;43882;51.550;11.858;2024-01-06T11:15:45;27.85;;;12.30;;
58083;SDS011;43882;51.550;11.858;2024-01-06T11:18:30;28.60;;;12.73;;
58083;SDS011;43882;51.550;11.858;2024-01-06T11:26:45;30.55;;;12.70;;
58083;SDS011;43882;51.550;11.858;2024-01-06T11:29:15;28.95;;;13.23;;
58083;SDS011;43882;51.550;11.858;2024-01-06T11:31:41;28.23;;;13.00;;
58083;SDS011;43882;51.550;11.858;2024-01-06T11:36:44;32.00;;;14.15;;
58083;SDS011;43882;51.550;11.858;2024-01-06T11:41:59;33.05;;;13.55;;
58083;SDS011;43882;51.550;11.858;2024-01-06T11:44:27;30.98;;;13.20;;
58083;SDS011;43882;51.550;11.858;2024-01-06T11:46:56;31.13;;;13.40;;
58083;SDS011;43882;51.550;11.858;2024-01-06T11:49:22;33.35;;;14.57;;
58083;SDS011;43882;51.550;11.858;2024-01-06T11:51:55;34.95;;;16.75;;
58083;SDS011;43882;51.550;11.858;2024-01-06T11:54:22;36.53;;;16.50;;
58083;SDS011;43882;51.550;11.858;2024-01-06T11:56:48;39.05;;;16.73;;
58083;SDS011;43882;51.550;11.858;2024-01-06T11:59:15;39.88;;;18.48;;
58083;SDS011;43882;51.550;11.858;2024-01-06T12:01:41;41.13;;;17.55;;
58083;SDS011;43882;51.550;11.858;2024-01-06T12:04:07;39.75;;;18.35;;
58083;SDS011;43882;51.550;11.858;2024-01-06T12:06:33;38.35;;;18.45;;
58083;SDS011;43882;51.550;11.858;2024-01-06T12:09:06;35.63;;;15.05;;
58083;SDS011;43882;51.550;11.858;2024-01-06T12:11:33;45.13;;;22.27;;
58083;SDS011;43882;51.550;11.858;2024-01-06T12:13:59;40.88;;;20.10;;
58083;SDS011;43882;51.550;11.858;2024-01-06T12:16:26;32.75;;;15.98;;
58083;SDS011;43882;51.550;11.858;2024-01-06T12:18:55;41.50;;;18.63;;
58083;SDS011;43882;51.550;11.858;2024-01-06T12:21:25;43.55;;;17.63;;
58083;SDS011;43882;51.550;11.858;2024-01-06T12:23:51;39.20;;;17.05;;
58083;SDS011;43882;51.550;11.858;2024-01-06T12:26:19;39.85;;;18.92;;
58083;SDS011;43882;51.550;11.858;2024-01-06T12:28:45;44.97;;;19.23;;
58083;SDS011;43882;51.550;11.858;2024-01-06T12:31:12;53.85;;;19.92;;
58083;SDS011;43882;51.550;11.858;2024-01-06T12:33:41;36.17;;;16.73;;
58083;SDS011;43882;51.550;11.858;2024-01-06T12:36:07;37.92;;;17.80;;
58083;SDS011;43882;51.550;11.858;2024-01-06T12:38:37;41.17;;;17.38;;
58083;SDS011;43882;51.550;11.858;2024-01-06T12:41:03;39.80;;;17.33;;
58083;SDS011;43882;51.550;11.858;2024-01-06T12:43:30;40.55;;;18.08;;
58083;SDS011;43882;51.550;11.858;2024-01-06T12:45:56;37.95;;;17.25;;
58083;SDS011;43882;51.550;11.858;2024-01-06T12:48:23;34.75;;;15.90;;
58083;SDS011;43882;51.550;11.858;2024-01-06T12:50:49;34.70;;;15.65;;
58083;SDS011;43882;51.550;11.858;2024-01-06T12:53:15;38.00;;;16.33;;
58083;SDS011;43882;51.550;11.858;2024-01-06T12:55:42;35.65;;;15.52;;
58083;SDS011;43882;51.550;11.858;2024-01-06T12:58:09;37.42;;;16.35;;
58083;SDS011;43882;51.550;11.858;2024-01-06T13:00:36;36.42;;;17.05;;
58083;SDS011;43882;51.550;11.858;2024-01-06T13:03:03;34.97;;;15.80;;
58083;SDS011;43882;51.550;11.858;2024-01-06T13:05:29;36.75;;;15.48;;
58083;SDS011;43882;51.550;11.858;2024-01-06T13:07:56;35.72;;;15.63;;
58083;SDS011;43882;51.550;11.858;2024-01-06T13:10:22;35.30;;;15.55;;
58083;SDS011;43882;51.550;11.858;2024-01-06T13:12:48;38.05;;;16.85;;
58083;SDS011;43882;51.550;11.858;2024-01-06T13:15:15;35.35;;;16.08;;
58083;SDS011;43882;51.550;11.858;2024-01-06T13:17:41;37.40;;;16.75;;
58083;SDS011;43882;51.550;11.858;2024-01-06T13:20:07;37.38;;;16.70;;
58083;SDS011;43882;51.550;11.858;2024-01-06T13:22:33;38.90;;;17.70;;
58083;SDS011;43882;51.550;11.858;2024-01-06T13:24:59;37.47;;;16.40;;
58083;SDS011;43882;51.550;11.858;2024-01-06T13:27:26;38.08;;;17.08;;
58083;SDS011;43882;51.550;11.858;2024-01-06T13:29:52;38.63;;;17.27;;
58083;SDS011;43882;51.550;11.858;2024-01-06T13:32:18;41.35;;;18.27;;
58083;SDS011;43882;51.550;11.858;2024-01-06T13:34:47;39.17;;;17.83;;
58083;SDS011;43882;51.550;11.858;2024-01-06T13:37:13;40.95;;;17.90;;
58083;SDS011;43882;51.550;11.858;2024-01-06T13:39:39;44.92;;;19.23;;
58083;SDS011;43882;51.550;11.858;2024-01-06T13:42:05;46.97;;;19.05;;
58083;SDS011;43882;51.550;11.858;2024-01-06T13:44:31;42.05;;;18.55;;
58083;SDS011;43882;51.550;11.858;2024-01-06T13:46:58;41.33;;;17.98;;
58083;SDS011;43882;51.550;11.858;2024-01-06T13:49:24;45.40;;;19.35;;
58083;SDS011;43882;51.550;11.858;2024-01-06T13:51:50;40.05;;;18.05;;
58083;SDS011;43882;51.550;11.858;2024-01-06T13:54:16;38.38;;;15.52;;
58083;SDS011;43882;51.550;11.858;2024-01-06T13:56:43;41.50;;;19.38;;
58083;SDS011;43882;51.550;11.858;2024-01-06T13:59:09;42.33;;;17.75;;
58083;SDS011;43882;51.550;11.858;2024-01-06T14:01:35;44.47;;;18.73;;
58083;SDS011;43882;51.550;11.858;2024-01-06T14:04:01;47.13;;;18.42;;
58083;SDS011;43882;51.550;11.858;2024-01-06T14:06:27;44.42;;;18.73;;
58083;SDS011;43882;51.550;11.858;2024-01-06T14:08:58;44.53;;;18.67;;
58083;SDS011;43882;51.550;11.858;2024-01-06T14:11:28;44.78;;;18.73;;
58083;SDS011;43882;51.550;11.858;2024-01-06T14:13:56;43.40;;;19.20;;
58083;SDS011;43882;51.550;11.858;2024-01-06T14:16:23;54.33;;;20.38;;
58083;SDS011;43882;51.550;11.858;2024-01-06T14:18:49;51.38;;;19.42;;
58083;SDS011;43882;51.550;11.858;2024-01-06T14:21:15;50.15;;;19.48;;
58083;SDS011;43882;51.550;11.858;2024-01-06T14:23:44;52.33;;;19.92;;
58083;SDS011;43882;51.550;11.858;2024-01-06T14:26:11;54.50;;;20.40;;
58083;SDS011;43882;51.550;11.858;2024-01-06T14:28:37;48.08;;;19.15;;